sensor_id;sensor_type;location;lat;lon;timestamp;P1;durP1;ratioP1;P2;durP2;ratioP2
56917;SDS011;42805;52.818;17.224;2023-12-20T00:09:09;4.90;;;3.60;;
56917;SDS011;42805;52.818;17.224;2023-12-20T00:19:12;6.10;;;4.10;;
56917;SDS011;42805;52.818;17.224;2023-12-20T00:29:17;8.30;;;4.70;;
56917;SDS011;42805;52.818;17.224;2023-12-20T00:39:21;5.50;;;3.80;;
56917;SDS011;42805;52.818;17.224;2023-12-20T00:49:25;6.10;;;4.70;;
56917;SDS011;42805;52.818;17.224;2023-12-20T00:59:28;3.70;;;3.30;;
56917;SDS011;42805;52.818;17.224;2023-12-20T01:09:32;4.70;;;3.60;;
56917;SDS011;42805;52.818;17.224;2023-12-20T01:19:37;4.50;;;3.60;;
56917;SDS011;42805;52.818;17.224;2023-12-20T01:29:41;5.30;;;3.90;;
56917;SDS011;42805;52.818;17.224;2023-12-20T01:39:45;4.10;;;3.20;;
56917;SDS011;42805;52.818;17.224;2023-12-20T01:49:49;3.80;;;3.20;;
56917;SDS011;42805;52.818;17.224;2023-12-20T01:59:53;3.70;;;3.00;;
56917;SDS011;42805;52.818;17.224;2023-12-20T02:09:57;4.00;;;2.80;;
56917;SDS011;42805;52.818;17.224;2023-12-20T02:20:01;4.70;;;3.40;;
56917;SDS011;42805;52.818;17.224;2023-12-20T02:30:06;5.40;;;3.40;;
56917;SDS011;42805;52.818;17.224;2023-12-20T02:40:10;4.40;;;3.40;;
56917;SDS011;42805;52.818;17.224;2023-12-20T02:50:14;5.50;;;3.80;;
56917;SDS011;42805;52.818;17.224;2023-12-20T03:00:18;5.60;;;3.40;;
56917;SDS011;42805;52.818;17.224;2023-12-20T03:10:22;5.10;;;3.30;;
56917;SDS011;42805;52.818;17.224;2023-12-20T03:20:29;4.10;;;2.90;;
56917;SDS011;42805;52.818;17.224;2023-12-20T03:30:36;4.80;;;3.90;;
56917;SDS011;42805;52.818;17.224;2023-12-20T03:40:40;4.10;;;2.90;;
56917;SDS011;42805;52.818;17.224;2023-12-20T03:50:44;4.00;;;3.30;;
56917;SDS011;42805;52.818;17.224;2023-12-20T04:00:48;2.90;;;2.30;;
56917;SDS011;42805;52.818;17.224;2023-12-20T04:10:51;6.60;;;4.00;;
56917;SDS011;42805;52.818;17.224;2023-12-20T04:20:55;5.10;;;3.50;;
56917;SDS011;42805;52.818;17.224;2023-12-20T04:30:59;3.50;;;2.40;;
56917;SDS011;42805;52.818;17.224;2023-12-20T04:41:03;6.20;;;3.70;;
56917;SDS011;42805;52.818;17.224;2023-12-20T04:51:06;4.00;;;2.50;;
56917;SDS011;42805;52.818;17.224;2023-12-20T05:01:10;3.30;;;2.50;;
56917;SDS011;42805;52.818;17.224;2023-12-20T05:11:15;9.20;;;5.40;;
56917;SDS011;42805;52.818;17.224;2023-12-20T05:21:19;5.30;;;3.60;;
56917;SDS011;42805;52.818;17.224;2023-12-20T05:31:23;5.90;;;3.50;;
56917;SDS011;42805;52.818;17.224;2023-12-20T05:41:26;5.90;;;3.40;;
56917;SDS011;42805;52.818;17.224;2023-12-20T05:51:30;4.00;;;2.50;;
56917;SDS011;42805;52.818;17.224;2023-12-20T06:01:34;4.90;;;2.80;;
56917;SDS011;42805;52.818;17.224;2023-12-20T06:11:38;8.00;;;4.00;;
56917;SDS011;42805;52.818;17.224;2023-12-20T06:21:42;6.60;;;4.20;;
56917;SDS011;42805;52.818;17.224;2023-12-20T06:31:47;8.30;;;5.00;;
56917;SDS011;42805;52.818;17.224;2023-12-20T06:41:51;7.40;;;4.90;;
56917;SDS011;42805;52.818;17.224;2023-12-20T06:51:55;11.40;;;7.10;;
56917;SDS011;42805;52.818;17.224;2023-12-20T07:01:59;14.30;;;8.90;;
56917;SDS011;42805;52.818;17.224;2023-12-20T07:12:03;9.70;;;6.10;;
56917;SDS011;42805;52.818;17.224;2023-12-20T07:22:07;8.20;;;5.50;;
56917;SDS011;42805;52.818;17.224;2023-12-20T07:32:11;10.00;;;7.10;;
56917;SDS011;42805;52.818;17.224;2023-12-20T07:42:15;7.50;;;5.20;;
56917;SDS011;42805;52.818;17.224;2023-12-20T07:52:19;13.50;;;6.70;;
56917;SDS011;42805;52.818;17.224;2023-12-20T08:02:26;17.20;;;8.00;;
56917;SDS011;42805;52.818;17.224;2023-12-20T08:12:30;13.40;;;7.30;;
56917;SDS011;42805;52.818;17.224;2023-12-20T08:22:33;20.50;;;11.60;;
56917;SDS011;42805;52.818;17.224;2023-12-20T08:32:38;18.80;;;9.80;;
56917;SDS011;42805;52.818;17.224;2023-12-20T08:42:42;10.20;;;5.50;;
56917;SDS011;42805;52.818;17.224;2023-12-20T08:52:46;9.90;;;7.20;;
56917;SDS011;42805;52.818;17.224;2023-12-20T09:02:51;9.50;;;6.20;;
56917;SDS011;42805;52.818;17.224;2023-12-20T09:12:55;9.30;;;5.80;;
56917;SDS011;42805;52.818;17.224;2023-12-20T09:23:00;11.20;;;6.10;;
56917;SDS011;42805;52.818;17.224;2023-12-20T09:33:04;9.60;;;4.30;;
56917;SDS011;42805;52.818;17.224;2023-12-20T09:43:11;9.00;;;4.10;;
56917;SDS011;42805;52.818;17.224;2023-12-20T09:53:21;7.40;;;4.20;;
56917;SDS011;42805;52.818;17.224;2023-12-20T10:03:26;6.90;;;3.50;;
56917;SDS011;42805;52.818;17.224;2023-12-20T10:13:31;8.80;;;3.90;;
56917;SDS011;42805;52.818;17.224;2023-12-20T10:23:35;9.80;;;4.60;;
56917;SDS011;42805;52.818;17.224;2023-12-20T10:33:39;8.90;;;3.50;;
56917;SDS011;42805;52.818;17.224;2023-12-20T10:43:43;11.90;;;3.30;;
56917;SDS011;42805;52.818;17.224;2023-12-20T10:53:48;9.50;;;5.10;;
56917;SDS011;42805;52.818;17.224;2023-12-20T11:03:53;10.30;;;4.60;;
56917;SDS011;42805;52.818;17.224;2023-12-20T11:14:00;13.30;;;7.40;;
56917;SDS011;42805;52.818;17.224;2023-12-20T11:24:07;13.50;;;6.10;;
56917;SDS011;42805;52.818;17.224;2023-12-20T11:34:14;12.60;;;3.80;;
56917;SDS011;42805;52.818;17.224;2023-12-20T11:44:18;8.20;;;3.30;;
56917;SDS011;42805;52.818;17.224;2023-12-20T11:54:22;9.10;;;3.70;;
56917;SDS011;42805;52.818;17.224;2023-12-20T12:04:27;7.70;;;3.80;;
56917;SDS011;42805;52.818;17.224;2023-12-20T12:14:31;7.00;;;2.60;;
56917;SDS011;42805;52.818;17.224;2023-12-20T12:24:53;7.00;;;2.90;;
56917;SDS011;42805;52.818;17.224;2023-12-20T12:35:07;11.80;;;4.10;;
56917;SDS011;42805;52.818;17.224;2023-12-20T12:45:20;8.90;;;3.50;;
56917;SDS011;42805;52.818;17.224;2023-12-20T12:55:24;9.40;;;4.20;;
56917;SDS011;42805;52.818;17.224;2023-12-20T13:05:29;11.40;;;4.40;;
56917;SDS011;42805;52.818;17.224;2023-12-20T13:15:35;16.30;;;5.50;;
56917;SDS011;42805;52.818;17.224;2023-12-20T13:25:40;23.60;;;11.90;;
56917;SDS011;42805;52.818;17.224;2023-12-20T13:35:44;16.10;;;6.70;;
56917;SDS011;42805;52.818;17.224;2023-12-20T13:45:48;16.90;;;6.00;;
56917;SDS011;42805;52.818;17.224;2023-12-20T13:55:52;18.70;;;6.30;;
56917;SDS011;42805;52.818;17.224;2023-12-20T14:05:56;20.80;;;7.20;;
56917;SDS011;42805;52.818;17.224;2023-12-20T14:16:00;18.30;;;8.30;;
56917;SDS011;42805;52.818;17.224;2023-12-20T14:26:06;15.60;;;6.40;;
56917;SDS011;42805;52.818;17.224;2023-12-20T14:36:11;16.30;;;7.40;;
56917;SDS011;42805;52.818;17.224;2023-12-20T14:46:16;20.70;;;8.80;;
56917;SDS011;42805;52.818;17.224;2023-12-20T14:56:20;16.80;;;6.50;;
56917;SDS011;42805;52.818;17.224;2023-12-20T15:06:31;25.30;;;10.40;;
56917;SDS011;42805;52.818;17.224;2023-12-20T15:28:41;10.20;;;5.30;;
56917;SDS011;42805;52.818;17.224;2023-12-20T15:38:46;11.40;;;5.40;;
56917;SDS011;42805;52.818;17.224;2023-12-20T15:48:50;12.40;;;6.00;;
56917;SDS011;42805;52.818;17.224;2023-12-20T15:58:56;12.90;;;5.50;;
56917;SDS011;42805;52.818;17.224;2023-12-20T16:09:02;11.20;;;4.50;;
56917;SDS011;42805;52.818;17.224;2023-12-20T16:19:09;11.20;;;5.30;;
56917;SDS011;42805;52.818;17.224;2023-12-20T16:29:14;10.10;;;3.70;;
56917;SDS011;42805;52.818;17.224;2023-12-20T16:39:18;7.20;;;3.10;;
56917;SDS011;42805;52.818;17.224;2023-12-20T16:49:27;9.50;;;4.50;;
56917;SDS011;42805;52.818;17.224;2023-12-20T16:59:32;8.00;;;3.90;;
56917;SDS011;42805;52.818;17.224;2023-12-20T17:09:36;8.20;;;3.70;;
56917;SDS011;42805;52.818;17.224;2023-12-20T17:19:41;7.30;;;3.10;;
56917;SDS011;42805;52.818;17.224;2023-12-20T17:29:47;6.10;;;3.20;;
56917;SDS011;42805;52.818;17.224;2023-12-20T17:39:51;5.60;;;2.70;;
56917;SDS011;42805;52.818;17.224;2023-12-20T17:49:55;4.90;;;2.50;;
56917;SDS011;42805;52.818;17.224;2023-12-20T18:00:39;5.40;;;2.40;;
56917;SDS011;42805;52.818;17.224;2023-12-20T18:10:52;6.60;;;3.40;;
56917;SDS011;42805;52.818;17.224;2023-12-20T18:20:58;7.80;;;3.80;;
56917;SDS011;42805;52.818;17.224;2023-12-20T18:31:03;12.40;;;4.90;;
56917;SDS011;42805;52.818;17.224;2023-12-20T18:41:11;8.10;;;3.60;;
56917;SDS011;42805;52.818;17.224;2023-12-20T18:51:19;9.80;;;4.80;;
56917;SDS011;42805;52.818;17.224;2023-12-20T19:01:23;10.00;;;5.00;;
56917;SDS011;42805;52.818;17.224;2023-12-20T19:11:28;10.80;;;4.80;;
56917;SDS011;42805;52.818;17.224;2023-12-20T19:21:32;12.90;;;4.20;;
56917;SDS011;42805;52.818;17.224;2023-12-20T19:31:36;13.70;;;4.80;;
56917;SDS011;42805;52.818;17.224;2023-12-20T19:41:40;13.60;;;5.20;;
56917;SDS011;42805;52.818;17.224;2023-12-20T19:51:44;10.70;;;4.00;;
56917;SDS011;42805;52.818;17.224;2023-12-20T20:01:51;10.90;;;4.40;;
56917;SDS011;42805;52.818;17.224;2023-12-20T21:46:58;17.70;;;6.70;;
56917;SDS011;42805;52.818;17.224;2023-12-20T21:57:11;12.00;;;4.30;;
56917;SDS011;42805;52.818;17.224;2023-12-20T22:07:33;13.80;;;4.00;;
56917;SDS011;42805;52.818;17.224;2023-12-20T22:17:40;15.10;;;4.20;;
56917;SDS011;42805;52.818;17.224;2023-12-20T22:27:46;14.00;;;4.20;;
56917;SDS011;42805;52.818;17.224;2023-12-20T22:38:02;11.30;;;4.00;;
56917;SDS011;42805;52.818;17.224;2023-12-20T22:48:07;13.40;;;4.30;;
56917;SDS011;42805;52.818;17.224;2023-12-20T22:58:12;16.80;;;4.60;;
56917;SDS011;42805;52.818;17.224;2023-12-20T23:08:16;15.50;;;4.10;;
56917;SDS011;42805;52.818;17.224;2023-12-20T23:18:21;15.60;;;5.30;;
56917;SDS011;42805;52.818;17.224;2023-12-20T23:28:25;14.40;;;3.70;;
56917;SDS011;42805;52.818;17.224;2023-12-20T23:38:29;14.50;;;3.40;;
56917;SDS011;42805;52.818;17.224;2023-12-20T23:48:33;10.60;;;3.20;;
56917;SDS011;42805;52.818;17.224;2023-12-20T23:58:38;12.90;;;3.90;;
